Wetterdaten: Montag, 31.05.2010
Datum Zeit Temp. A. Feuchte A. Luftdruck Regen Wind Richtung Richtung Sonnenschein UV Solar Windben
31.05.2010 00:00 8,5 C 90 % 1005,7 hPa 0,3 mm 6,4 km/h (2 Bft) W 270 0 min 0 UV-I 0 W/m 20,9 km/h (4 Bft)
31.05.2010 00:10 8,6 C 90 % 1005,8 hPa 0,3 mm 6,4 km/h (2 Bft) W 270 0 min 0 UV-I 0 W/m 16,1 km/h (3 Bft)
31.05.2010 00:20 8,6 C 90 % 1005,8 hPa 0,3 mm 6,4 km/h (2 Bft) W-SW 247 0 min 0 UV-I 0 W/m 19,3 km/h (3 Bft)
31.05.2010 00:30 8,6 C 90 % 1005,8 hPa 0,0 mm 6,4 km/h (2 Bft) W 270 0 min 0 UV-I 0 W/m 20,9 km/h (4 Bft)
31.05.2010 00:40 8,7 C 90 % 1005,7 hPa 0,3 mm 8,0 km/h (2 Bft) W 270 0 min 0 UV-I 0 W/m 25,7 km/h (4 Bft)
31.05.2010 00:50 8,6 C 90 % 1005,7 hPa 0,3 mm 6,4 km/h (2 Bft) W 270 0 min 0 UV-I 0 W/m 17,7 km/h (3 Bft)
31.05.2010 01:00 8,7 C 90 % 1005,6 hPa 0,0 mm 4,8 km/h (1 Bft) W 270 0 min 0 UV-I 0 W/m 16,1 km/h (3 Bft)
31.05.2010 01:10 8,7 C 90 % 1005,6 hPa 0,0 mm 4,8 km/h (1 Bft) W 270 0 min 0 UV-I 0 W/m 24,1 km/h (4 Bft)
31.05.2010 01:20 8,6 C 90 % 1005,7 hPa 0,3 mm 4,8 km/h (1 Bft) W-SW 247 0 min 0 UV-I 0 W/m 16,1 km/h (3 Bft)
31.05.2010 01:30 8,6 C 90 % 1005,5 hPa 0,0 mm 6,4 km/h (2 Bft) W-SW 247 0 min 0 UV-I 0 W/m 19,3 km/h (3 Bft)
31.05.2010 01:40 8,6 C 90 % 1005,6 hPa 0,0 mm 8,0 km/h (2 Bft) W 270 0 min 0 UV-I 0 W/m 20,9 km/h (4 Bft)
31.05.2010 01:50 8,5 C 90 % 1005,6 hPa 0,0 mm 8,0 km/h (2 Bft) W-SW 247 0 min 0 UV-I 0 W/m 20,9 km/h (4 Bft)
31.05.2010 02:00 8,5 C 90 % 1005,6 hPa 0,0 mm 6,4 km/h (2 Bft) W-SW 247 0 min 0 UV-I 0 W/m 14,5 km/h (3 Bft)
31.05.2010 02:10 8,5 C 90 % 1005,6 hPa 0,0 mm 6,4 km/h (2 Bft) W 270 0 min 0 UV-I 0 W/m 19,3 km/h (3 Bft)
31.05.2010 02:20 8,5 C 90 % 1005,6 hPa 0,0 mm 8,0 km/h (2 Bft) W 270 0 min 0 UV-I 0 W/m 20,9 km/h (4 Bft)
31.05.2010 02:30 8,5 C 90 % 1005,6 hPa 0,0 mm 8,0 km/h (2 Bft) W 270 0 min 0 UV-I 0 W/m 20,9 km/h (4 Bft)
31.05.2010 02:40 8,5 C 90 % 1005,6 hPa 0,0 mm 6,4 km/h (2 Bft) W-SW 247 0 min 0 UV-I 0 W/m 17,7 km/h (3 Bft)
31.05.2010 02:50 8,5 C 90 % 1005,7 hPa 0,0 mm 6,4 km/h (2 Bft) W 270 0 min 0 UV-I 0 W/m 19,3 km/h (3 Bft)
31.05.2010 03:00 8,5 C 90 % 1005,8 hPa 0,0 mm 4,8 km/h (1 Bft) W 270 0 min 0 UV-I 0 W/m 11,3 km/h (2 Bft)
31.05.2010 03:10 8,6 C 90 % 1005,8 hPa 0,0 mm 4,8 km/h (1 Bft) W 270 0 min 0 UV-I 0 W/m 17,7 km/h (3 Bft)
31.05.2010 03:20 8,6 C 90 % 1005,9 hPa 0,0 mm 6,4 km/h (2 Bft) W 270 0 min 0 UV-I 0 W/m 17,7 km/h (3 Bft)
31.05.2010 03:30 8,7 C 90 % 1006,0 hPa 0,0 mm 4,8 km/h (1 Bft) W 270 0 min 0 UV-I 0 W/m 16,1 km/h (3 Bft)
31.05.2010 03:40 8,7 C 90 % 1006,0 hPa 0,0 mm 6,4 km/h (2 Bft) W 270 0 min 0 UV-I 0 W/m 20,9 km/h (4 Bft)
31.05.2010 03:50 8,7 C 90 % 1006,0 hPa 0,0 mm 4,8 km/h (1 Bft) W-SW 247 0 min 0 UV-I 0 W/m 17,7 km/h (3 Bft)
31.05.2010 04:00 8,7 C 90 % 1006,0 hPa 0,0 mm 6,4 km/h (2 Bft) W-SW 247 0 min 0 UV-I 0 W/m 19,3 km/h (3 Bft)
31.05.2010 04:10 8,8 C 90 % 1006,1 hPa 0,0 mm 3,2 km/h (1 Bft) W 270 0 min 0 UV-I 0 W/m 14,5 km/h (3 Bft)
31.05.2010 04:20 8,8 C 90 % 1006,2 hPa 0,0 mm 4,8 km/h (1 Bft) W 270 0 min 0 UV-I 0 W/m 12,9 km/h (3 Bft)
31.05.2010 04:30 8,8 C 90 % 1006,3 hPa 0,0 mm 6,4 km/h (2 Bft) W 270 0 min 0 UV-I 0 W/m 16,1 km/h (3 Bft)
31.05.2010 04:40 8,8 C 90 % 1006,5 hPa 0,0 mm 1,6 km/h (1 Bft) W-NW 292 0 min 0 UV-I 0 W/m 8,0 km/h (2 Bft)
31.05.2010 04:50 8,8 C 90 % 1006,5 hPa 0,0 mm 3,2 km/h (1 Bft) W-NW 292 0 min 0 UV-I 0 W/m 11,3 km/h (2 Bft)
31.05.2010 05:00 8,8 C 90 % 1006,6 hPa 0,0 mm 3,2 km/h (1 Bft) W 270 0 min 0 UV-I 0 W/m 12,9 km/h (3 Bft)
31.05.2010 05:10 8,8 C 90 % 1006,8 hPa 0,0 mm 4,8 km/h (1 Bft) W-SW 247 0 min 0 UV-I 0 W/m 14,5 km/h (3 Bft)
31.05.2010 05:20 8,9 C 91 % 1006,9 hPa 0,0 mm 3,2 km/h (1 Bft) W-NW 292 0 min 0 UV-I 0 W/m 9,7 km/h (2 Bft)
31.05.2010 05:30 8,9 C 91 % 1007,0 hPa 0,0 mm 1,6 km/h (1 Bft) W 270 0 min 0 UV-I 0 W/m 8,0 km/h (2 Bft)
31.05.2010 05:40 9,0 C 91 % 1007,0 hPa 0,0 mm 1,6 km/h (1 Bft) W 270 0 min 0 UV-I 0 W/m 8,0 km/h (2 Bft)
31.05.2010 05:50 9,1 C 91 % 1007,0 hPa 0,0 mm 0,0 km/h (0 Bft) W 270 0 min 0 UV-I 5 W/m 4,8 km/h (1 Bft)
31.05.2010 06:00 9,1 C 91 % 1007,1 hPa 0,0 mm 1,6 km/h (1 Bft) W 270 0 min 0 UV-I 5 W/m 6,4 km/h (2 Bft)
31.05.2010 06:10 9,1 C 91 % 1007,2 hPa 0,0 mm 1,6 km/h (1 Bft) W-SW 247 0 min 0 UV-I 9 W/m 9,7 km/h (2 Bft)
31.05.2010 06:20 9,1 C 91 % 1007,3 hPa 0,0 mm 3,2 km/h (1 Bft) W 270 0 min 0 UV-I 19 W/m 11,3 km/h (2 Bft)
31.05.2010 06:30 9,2 C 91 % 1007,4 hPa 0,0 mm 3,2 km/h (1 Bft) W-SW 247 0 min 0 UV-I 23 W/m 6,4 km/h (2 Bft)
31.05.2010 06:40 9,2 C 91 % 1007,4 hPa 0,0 mm 4,8 km/h (1 Bft) W-SW 247 0 min 0 UV-I 18 W/m 11,3 km/h (2 Bft)
31.05.2010 06:50 9,2 C 91 % 1007,6 hPa 0,0 mm 3,2 km/h (1 Bft) W-SW 247 0 min 0 UV-I 28 W/m 9,7 km/h (2 Bft)
31.05.2010 07:00 9,3 C 91 % 1007,6 hPa 0,0 mm 3,2 km/h (1 Bft) W-SW 247 0 min 0 UV-I 49 W/m 11,3 km/h (2 Bft)
31.05.2010 07:10 9,3 C 91 % 1007,7 hPa 0,0 mm 3,2 km/h (1 Bft) W-SW 247 0 min 0 UV-I 54 W/m 11,3 km/h (2 Bft)
31.05.2010 07:20 9,5 C 91 % 1007,7 hPa 0,0 mm 3,2 km/h (1 Bft) W 270 0 min 0 UV-I 86 W/m 12,9 km/h (3 Bft)
31.05.2010 07:30 9,6 C 91 % 1007,7 hPa 0,0 mm 4,8 km/h (1 Bft) W 270 0 min 1 UV-I 107 W/m 11,3 km/h (2 Bft)
31.05.2010 07:40 9,7 C 90 % 1007,8 hPa 0,0 mm 4,8 km/h (1 Bft) W-SW 247 0 min 0 UV-I 76 W/m 11,3 km/h (2 Bft)
31.05.2010 07:50 9,8 C 90 % 1007,9 hPa 0,0 mm 4,0 km/h (1 Bft) W-NW 292 0 min 0 UV-I 40 W/m 8,0 km/h (2 Bft)
31.05.2010 08:00 9,8 C 90 % 1008,1 hPa 0,0 mm 5,1 km/h (1 Bft) W 263 0 min 0 UV-I 45 W/m 16,1 km/h (3 Bft)
31.05.2010 08:10 10,0 C 89 % 1008,2 hPa 0,0 mm 4,2 km/h (1 Bft) W 259 0 min 0 UV-I 96 W/m 9,7 km/h (2 Bft)
31.05.2010 08:20 10,3 C 89 % 1008,3 hPa 0,0 mm 4,5 km/h (1 Bft) W 273 0 min 1 UV-I 141 W/m 11,3 km/h (2 Bft)
31.05.2010 08:30 10,3 C 88 % 1008,4 hPa 0,0 mm 3,4 km/h (1 Bft) SW 229 0 min 0 UV-I 96 W/m 14,5 km/h (3 Bft)
31.05.2010 08:40 10,2 C 88 % 1008,5 hPa 0,0 mm 6,3 km/h (2 Bft) W 261 0 min 0 UV-I 68 W/m 16,1 km/h (3 Bft)
31.05.2010 08:50 10,3 C 88 % 1008,5 hPa 0,0 mm 5,9 km/h (2 Bft) SW 234 0 min 1 UV-I 107 W/m 17,7 km/h (3 Bft)
31.05.2010 09:00 10,6 C 88 % 1008,7 hPa 0,0 mm 5,3 km/h (1 Bft) W-SW 244 0 min 1 UV-I 181 W/m 16,1 km/h (3 Bft)
31.05.2010 09:10 10,8 C 87 % 1008,7 hPa 0,0 mm 4,9 km/h (1 Bft) W-SW 250 0 min 1 UV-I 159 W/m 16,1 km/h (3 Bft)
31.05.2010 09:20 10,9 C 86 % 1008,8 hPa 0,0 mm 5,1 km/h (1 Bft) W 272 0 min 1 UV-I 173 W/m 17,7 km/h (3 Bft)
31.05.2010 09:30 10,9 C 86 % 1008,9 hPa 0,0 mm 5,9 km/h (2 Bft) W-SW 254 0 min 1 UV-I 185 W/m 16,1 km/h (3 Bft)
31.05.2010 09:40 11,1 C 85 % 1009,2 hPa 0,0 mm 6,6 km/h (2 Bft) W-SW 244 0 min 1 UV-I 165 W/m 17,7 km/h (3 Bft)
31.05.2010 09:50 11,2 C 84 % 1009,2 hPa 0,0 mm 6,5 km/h (2 Bft) W 273 0 min 1 UV-I 192 W/m 19,3 km/h (3 Bft)
31.05.2010 10:00 11,4 C 84 % 1009,2 hPa 0,0 mm 5,7 km/h (1 Bft) W-SW 252 0 min 1 UV-I 134 W/m 17,7 km/h (3 Bft)
31.05.2010 10:10 11,3 C 84 % 1009,4 hPa 0,0 mm 6,9 km/h (2 Bft) W 265 0 min 1 UV-I 89 W/m 20,9 km/h (4 Bft)
31.05.2010 10:20 11,3 C 83 % 1009,4 hPa 0,0 mm 5,6 km/h (1 Bft) W 271 0 min 1 UV-I 96 W/m 16,1 km/h (3 Bft)
31.05.2010 10:30 11,3 C 83 % 1009,5 hPa 0,0 mm 5,8 km/h (2 Bft) W-SW 248 0 min 1 UV-I 89 W/m 19,3 km/h (3 Bft)
31.05.2010 10:40 11,2 C 82 % 1009,6 hPa 0,0 mm 8,9 km/h (2 Bft) W 261 0 min 1 UV-I 89 W/m 22,5 km/h (4 Bft)
31.05.2010 10:50 11,3 C 82 % 1009,8 hPa 0,0 mm 8,7 km/h (2 Bft) W 261 0 min 1 UV-I 126 W/m 24,1 km/h (4 Bft)
31.05.2010 11:00 11,3 C 83 % 1009,8 hPa 0,0 mm 6,9 km/h (2 Bft) SW 232 0 min 1 UV-I 140 W/m 19,3 km/h (3 Bft)
31.05.2010 11:10 11,2 C 84 % 1009,9 hPa 0,0 mm 7,8 km/h (2 Bft) W 278 0 min 1 UV-I 116 W/m 22,5 km/h (4 Bft)
31.05.2010 11:20 11,1 C 84 % 1010,0 hPa 0,0 mm 6,3 km/h (2 Bft) W 261 0 min 1 UV-I 88 W/m 17,7 km/h (3 Bft)
31.05.2010 11:30 11,1 C 83 % 1010,0 hPa 0,0 mm 8,8 km/h (2 Bft) N-NW 327 0 min 1 UV-I 146 W/m 20,9 km/h (4 Bft)
31.05.2010 11:40 11,2 C 85 % 1010,0 hPa 0,3 mm 3,8 km/h (1 Bft) W-SW 243 0 min 1 UV-I 134 W/m 14,5 km/h (3 Bft)
31.05.2010 11:50 11,0 C 86 % 1010,1 hPa 0,0 mm 4,6 km/h (1 Bft) W-SW 258 0 min 1 UV-I 91 W/m 16,1 km/h (3 Bft)
31.05.2010 12:00 10,7 C 87 % 1010,2 hPa 0,0 mm 4,2 km/h (1 Bft) W 268 0 min 1 UV-I 84 W/m 16,1 km/h (3 Bft)
31.05.2010 12:10 10,6 C 88 % 1010,2 hPa 0,0 mm 6,1 km/h (2 Bft) W-SW 257 0 min 1 UV-I 70 W/m 16,1 km/h (3 Bft)
31.05.2010 12:20 10,6 C 89 % 1010,3 hPa 0,0 mm 5,9 km/h (2 Bft) W-SW 253 0 min 1 UV-I 83 W/m 16,1 km/h (3 Bft)
31.05.2010 12:30 10,6 C 89 % 1010,4 hPa 0,0 mm 5,0 km/h (1 Bft) SW 232 0 min 1 UV-I 93 W/m 16,1 km/h (3 Bft)
31.05.2010 12:40 10,4 C 89 % 1010,6 hPa 0,0 mm 8,6 km/h (2 Bft) W 275 0 min 1 UV-I 104 W/m 19,3 km/h (3 Bft)
31.05.2010 12:50 10,5 C 89 % 1010,6 hPa 0,0 mm 4,3 km/h (1 Bft) SW 232 0 min 1 UV-I 79 W/m 14,5 km/h (3 Bft)
31.05.2010 13:00 10,6 C 89 % 1010,6 hPa 0,0 mm 2,6 km/h (1 Bft) W-SW 246 0 min 1 UV-I 67 W/m 8,0 km/h (2 Bft)
31.05.2010 13:10 10,7 C 89 % 1010,6 hPa 0,0 mm 3,6 km/h (1 Bft) W 271 0 min 1 UV-I 79 W/m 11,3 km/h (2 Bft)
31.05.2010 13:20 10,7 C 89 % 1010,7 hPa 0,0 mm 5,2 km/h (1 Bft) W-SW 237 0 min 1 UV-I 88 W/m 14,5 km/h (3 Bft)
31.05.2010 13:30 10,7 C 90 % 1010,8 hPa 0,3 mm 4,1 km/h (1 Bft) W-SW 257 0 min 1 UV-I 81 W/m 17,7 km/h (3 Bft)
31.05.2010 13:40 10,8 C 91 % 1010,9 hPa 0,0 mm 4,8 km/h (1 Bft) W 265 0 min 1 UV-I 73 W/m 17,7 km/h (3 Bft)
31.05.2010 13:50 10,8 C 91 % 1010,9 hPa 0,0 mm 4,9 km/h (1 Bft) W-NW 290 0 min 1 UV-I 74 W/m 14,5 km/h (3 Bft)
31.05.2010 14:00 10,9 C 92 % 1010,8 hPa 0,0 mm 4,8 km/h (1 Bft) W 278 0 min 1 UV-I 103 W/m 14,5 km/h (3 Bft)
31.05.2010 14:10 11,1 C 92 % 1010,9 hPa 0,3 mm 5,7 km/h (1 Bft) W-NW 292 0 min 1 UV-I 106 W/m 16,1 km/h (3 Bft)
31.05.2010 14:20 11,2 C 92 % 1010,9 hPa 0,0 mm 6,5 km/h (2 Bft) W-SW 254 0 min 1 UV-I 101 W/m 17,7 km/h (3 Bft)
31.05.2010 14:30 11,3 C 92 % 1011,0 hPa 0,0 mm 5,7 km/h (1 Bft) W-SW 257 0 min 1 UV-I 103 W/m 16,1 km/h (3 Bft)
31.05.2010 14:40 11,4 C 93 % 1011,0 hPa 0,0 mm 5,1 km/h (1 Bft) SW 233 0 min 1 UV-I 94 W/m 16,1 km/h (3 Bft)
31.05.2010 14:50 11,6 C 93 % 1011,0 hPa 0,0 mm 4,6 km/h (1 Bft) W-SW 249 0 min 1 UV-I 112 W/m 14,5 km/h (3 Bft)
31.05.2010 15:00 11,7 C 93 % 1011,0 hPa 0,0 mm 4,1 km/h (1 Bft) W 273 0 min 1 UV-I 100 W/m 12,9 km/h (3 Bft)
31.05.2010 15:10 11,7 C 93 % 1011,1 hPa 0,0 mm 6,8 km/h (2 Bft) W 259 0 min 1 UV-I 95 W/m 17,7 km/h (3 Bft)
31.05.2010 15:20 11,7 C 93 % 1011,1 hPa 0,0 mm 5,4 km/h (1 Bft) W 281 0 min 0 UV-I 61 W/m 11,3 km/h (2 Bft)
31.05.2010 15:30 11,8 C 93 % 1011,3 hPa 0,3 mm 4,0 km/h (1 Bft) W 269 0 min 0 UV-I 49 W/m 8,0 km/h (2 Bft)
31.05.2010 15:40 11,7 C 93 % 1011,3 hPa 0,3 mm 5,7 km/h (1 Bft) W 267 0 min 0 UV-I 37 W/m 16,1 km/h (3 Bft)
31.05.2010 15:50 11,8 C 93 % 1011,4 hPa 0,3 mm 3,7 km/h (1 Bft) W-NW 288 0 min 0 UV-I 38 W/m 11,3 km/h (2 Bft)
31.05.2010 16:00 11,8 C 93 % 1011,4 hPa 0,0 mm 4,6 km/h (1 Bft) W 263 0 min 0 UV-I 60 W/m 19,3 km/h (3 Bft)
31.05.2010 16:10 11,9 C 93 % 1011,4 hPa 0,0 mm 4,3 km/h (1 Bft) W 273 0 min 1 UV-I 78 W/m 11,3 km/h (2 Bft)
31.05.2010 16:20 12,1 C 93 % 1011,3 hPa 0,3 mm 5,4 km/h (1 Bft) W 273 0 min 1 UV-I 110 W/m 14,5 km/h (3 Bft)
31.05.2010 16:30 12,2 C 93 % 1011,4 hPa 0,0 mm 3,1 km/h (1 Bft) W-NW 290 0 min 1 UV-I 95 W/m 11,3 km/h (2 Bft)
31.05.2010 16:40 12,2 C 93 % 1011,5 hPa 0,0 mm 4,7 km/h (1 Bft) W 269 0 min 1 UV-I 95 W/m 11,3 km/h (2 Bft)
31.05.2010 16:50 12,3 C 93 % 1011,7 hPa 0,0 mm 5,0 km/h (1 Bft) W-NW 288 0 min 1 UV-I 80 W/m 16,1 km/h (3 Bft)
31.05.2010 17:00 12,4 C 93 % 1011,7 hPa 0,0 mm 3,8 km/h (1 Bft) W-NW 282 0 min 1 UV-I 75 W/m 11,3 km/h (2 Bft)
31.05.2010 17:10 12,3 C 93 % 1011,8 hPa 0,0 mm 2,3 km/h (1 Bft) W 263 0 min 0 UV-I 46 W/m 9,7 km/h (2 Bft)
31.05.2010 17:20 12,4 C 93 % 1011,9 hPa 0,0 mm 2,3 km/h (1 Bft) W-NW 296 0 min 0 UV-I 58 W/m 8,0 km/h (2 Bft)
31.05.2010 17:30 12,4 C 93 % 1012,0 hPa 0,0 mm 2,9 km/h (1 Bft) W 279 0 min 0 UV-I 64 W/m 9,7 km/h (2 Bft)
31.05.2010 17:40 12,4 C 93 % 1012,1 hPa 0,5 mm 1,1 km/h (1 Bft) NW 323 0 min 0 UV-I 32 W/m 8,0 km/h (2 Bft)
31.05.2010 17:50 12,4 C 93 % 1012,3 hPa 0,0 mm 3,1 km/h (1 Bft) N 10 0 min 1 UV-I 81 W/m 12,9 km/h (3 Bft)
31.05.2010 18:00 12,3 C 93 % 1012,4 hPa 0,0 mm 4,4 km/h (1 Bft) NW 323 0 min 0 UV-I 54 W/m 16,1 km/h (3 Bft)
31.05.2010 18:10 12,2 C 93 % 1012,4 hPa 0,0 mm 3,4 km/h (1 Bft) N 10 0 min 0 UV-I 60 W/m 11,3 km/h (2 Bft)
31.05.2010 18:20 12,3 C 93 % 1012,4 hPa 0,0 mm 2,5 km/h (1 Bft) N-NO 25 0 min 1 UV-I 85 W/m 9,7 km/h (2 Bft)
31.05.2010 18:30 12,4 C 93 % 1012,5 hPa 0,0 mm 2,5 km/h (1 Bft) N 5 0 min 0 UV-I 66 W/m 11,3 km/h (2 Bft)
31.05.2010 18:40 12,4 C 93 % 1012,6 hPa 0,0 mm 1,8 km/h (1 Bft) N-NO 16 0 min 0 UV-I 74 W/m 8,0 km/h (2 Bft)
31.05.2010 18:50 12,4 C 93 % 1012,8 hPa 0,0 mm 2,0 km/h (1 Bft) N 360 0 min 0 UV-I 62 W/m 9,7 km/h (2 Bft)
31.05.2010 19:00 12,4 C 92 % 1013,0 hPa 0,0 mm 1,7 km/h (1 Bft) N 9 0 min 0 UV-I 33 W/m 6,4 km/h (2 Bft)
31.05.2010 19:10 12,4 C 93 % 1013,0 hPa 0,0 mm 1,0 km/h (0 Bft) N 10 0 min 0 UV-I 47 W/m 6,4 km/h (2 Bft)
31.05.2010 19:20 12,5 C 93 % 1013,0 hPa 0,0 mm 0,4 km/h (0 Bft) N 10 0 min 0 UV-I 77 W/m 4,8 km/h (1 Bft)
31.05.2010 19:30 12,6 C 93 % 1013,1 hPa 0,0 mm 1,0 km/h (0 Bft) N 10 0 min 0 UV-I 82 W/m 4,8 km/h (1 Bft)
31.05.2010 19:40 12,5 C 93 % 1013,2 hPa 0,0 mm 1,0 km/h (0 Bft) N 10 0 min 0 UV-I 59 W/m 6,4 km/h (2 Bft)
31.05.2010 19:50 12,4 C 92 % 1013,3 hPa 0,0 mm 0,7 km/h (0 Bft) N-NO 13 0 min 0 UV-I 44 W/m 4,8 km/h (1 Bft)
31.05.2010 20:00 12,4 C 92 % 1013,5 hPa 0,0 mm 0,8 km/h (0 Bft) W-NW 294 0 min 0 UV-I 26 W/m 4,8 km/h (1 Bft)
31.05.2010 20:10 12,4 C 92 % 1013,5 hPa 0,0 mm 0,9 km/h (0 Bft) NW 321 0 min 0 UV-I 26 W/m 4,8 km/h (1 Bft)
31.05.2010 20:20 12,4 C 92 % 1013,7 hPa 0,0 mm 0,3 km/h (0 Bft) NW 310 0 min 0 UV-I 33 W/m 3,2 km/h (1 Bft)
31.05.2010 20:30 12,4 C 92 % 1013,7 hPa 0,0 mm 0,6 km/h (0 Bft) W-NW 302 0 min 0 UV-I 17 W/m 6,4 km/h (2 Bft)
31.05.2010 20:40 12,3 C 92 % 1014,0 hPa 0,0 mm 0,0 km/h (0 Bft) W-NW 292 0 min 0 UV-I 16 W/m 4,8 km/h (1 Bft)
31.05.2010 20:50 12,3 C 92 % 1014,2 hPa 0,0 mm 0,0 km/h (0 Bft) W-NW 292 0 min 0 UV-I 18 W/m 4,8 km/h (1 Bft)
31.05.2010 21:00 12,3 C 92 % 1014,3 hPa 0,0 mm 0,0 km/h (0 Bft) W-NW 292 0 min 0 UV-I 14 W/m 3,2 km/h (1 Bft)
31.05.2010 21:10 12,3 C 92 % 1014,4 hPa 0,0 mm 0,0 km/h (0 Bft) W-NW 292 0 min 0 UV-I 9 W/m 1,6 km/h (1 Bft)
31.05.2010 21:20 12,3 C 92 % 1014,4 hPa 0,0 mm 0,0 km/h (0 Bft) W-NW 292 0 min 0 UV-I 5 W/m 4,8 km/h (1 Bft)
31.05.2010 21:30 12,2 C 92 % 1014,6 hPa 0,0 mm 0,0 km/h (0 Bft) W-NW 292 0 min 0 UV-I 0 W/m 3,2 km/h (1 Bft)
31.05.2010 21:40 12,1 C 92 % 1014,7 hPa 0,0 mm 0,0 km/h (0 Bft) W-NW 292 0 min 0 UV-I 0 W/m 1,6 km/h (1 Bft)
31.05.2010 21:50 12,0 C 92 % 1014,8 hPa 0,0 mm 0,0 km/h (0 Bft) N 0 0 min 0 UV-I 0 W/m 0,0 km/h (0 Bft)
31.05.2010 22:00 11,9 C 92 % 1014,9 hPa 0,0 mm 0,0 km/h (0 Bft) W-NW 292 0 min 0 UV-I 0 W/m 1,6 km/h (1 Bft)
31.05.2010 22:10 11,9 C 92 % 1015,1 hPa 0,0 mm 0,0 km/h (0 Bft) W-NW 292 0 min 0 UV-I 0 W/m 3,2 km/h (1 Bft)
31.05.2010 22:20 11,9 C 93 % 1015,3 hPa 0,0 mm 0,0 km/h (0 Bft) W-NW 292 0 min 0 UV-I 0 W/m 3,2 km/h (1 Bft)
31.05.2010 22:30 11,9 C 93 % 1015,2 hPa 0,0 mm 0,0 km/h (0 Bft) W-NW 292 0 min 0 UV-I 0 W/m 1,6 km/h (1 Bft)
31.05.2010 22:40 11,9 C 93 % 1015,2 hPa 0,0 mm 0,0 km/h (0 Bft) W-NW 292 0 min 0 UV-I 0 W/m 3,2 km/h (1 Bft)
31.05.2010 22:50 11,8 C 93 % 1015,2 hPa 0,0 mm 0,0 km/h (0 Bft) W-NW 292 0 min 0 UV-I 0 W/m 1,6 km/h (1 Bft)
31.05.2010 23:00 11,8 C 93 % 1015,1 hPa 0,0 mm 0,0 km/h (0 Bft) N 0 0 min 0 UV-I 0 W/m 0,0 km/h (0 Bft)
31.05.2010 23:10 11,6 C 93 % 1015,3 hPa 0,3 mm 0,0 km/h (0 Bft) N 0 0 min 0 UV-I 0 W/m 0,0 km/h (0 Bft)
31.05.2010 23:20 11,3 C 93 % 1015,3 hPa 0,0 mm 0,0 km/h (0 Bft) N 0 0 min 0 UV-I 0 W/m 0,0 km/h (0 Bft)
31.05.2010 23:30 11,3 C 93 % 1015,2 hPa 0,0 mm 0,0 km/h (0 Bft) W-NW 292 0 min 0 UV-I 0 W/m 1,6 km/h (1 Bft)
31.05.2010 23:40 11,2 C 93 % 1015,2 hPa 0,0 mm 0,0 km/h (0 Bft) N 0 0 min 0 UV-I 0 W/m 0,0 km/h (0 Bft)
31.05.2010 23:50 11,1 C 93 % 1015,2 hPa 0,0 mm 0,0 km/h (0 Bft) N 0 0 min 0 UV-I 0 W/m 0,0 km/h (0 Bft)
_ Min-Zeit 02:40 10:40 01:30 - 05:50 - - - - - 21:50
Minimum _ 8,4 C 82 % 1005,5 hPa - 0,0 km/h (0 Bft) - - - - - 0,0 km/h (0 Bft)
_ Max-Zeit 17:50 14:40 22:20 17:40 10:40 - - 00:00 09:50 09:50 00:40
Maximum _ 12,6 C 93 % 1015,3 hPa 0,5 mm 8,9 km/h
W (2 Bft)
- - 0 min 1 UV-I 192 W/m 25,7 km/h
W-SW (4 Bft)
Durchschnitt _ 10,7 C 90 % 1009,9 hPa #4,1 mm 3,9 km/h (1 Bft) W - #0 min. 1 UV-I 77 W/m 12,4 km/h (3 Bft)